• Join FlightAware (Why Join?)
  • Login
  • US Flag 
Gobble Gobble! 
04:51AM EST


 

Airport Tracker/Info


-or-


 

Live Flight TrackerFlight Track Log ✈ AWE1454 ✈ 25-Apr-2013 ✈ KPHL - KMHT

Flight Track Log - Related Links

Times and Time Zones

All times are in EDT time to prevent confusion due to time zone crossing. See the AWE1454 flight status page for this flight to view local times or setup timezone preferences in your user account.

Time Position Orientation Groundspeed Altitude Reporting Facility
EDT Latitude Longitude Course Direction KTS MPH feet Rate Location/Type
04:28PM 39.8667 -75.2833 37° Northeast 141 162 800  Level Philadelphia TRACON
04:29PM 39.8333 -75.3000 201° Southwest 185 213 1,800 1,860 Climbing Philadelphia TRACON
04:30PM 39.7958 -74.7621 105° East  Level FlightAware Approximate
04:30PM 39.7833 -75.3500 218° Southwest 220 253 4,200  Level Philadelphia TRACON
04:31PM 39.8438 -74.6396 37° Northeast  Level FlightAware Approximate
04:31PM 39.7333 -75.3833 207° Southwest 236 272 7,200  Level Philadelphia TRACON
04:32PM 39.9468 -74.5532 37° Northeast  Level FlightAware Approximate
04:32PM 39.7000 -75.3000 117° Southeast 316 364 9,400  Level Philadelphia TRACON
04:33PM 40.0464 -74.4536 37° Northeast  Level FlightAware Approximate
04:33PM 39.7167 -75.1833 79° East 356 410 11,200  Level Philadelphia TRACON
04:35PM 39.7581 -74.9483 77° East 383 441 12,000 540 Climbing New York Center
04:36PM 39.7794 -74.8172 78° East 369 425 12,900 1,500 Climbing New York Center
04:37PM 39.8192 -74.6869 68° East 369 425 15,000 2,040 Climbing New York Center
04:38PM 39.9139 -74.5978 36° Northeast 383 441 17,000 1,860 Climbing New York Center
04:39PM 40.0086 -74.5053 37° Northeast 390 449 18,800 1,800 Climbing New York Center
04:40PM 40.1117 -74.4131 34° Northeast 427 491 20,600 1,860 Climbing New York Center
04:41PM 40.2206 -74.3211 33° Northeast 453 521 22,500 1,680 Climbing New York Center
04:42PM 40.3317 -74.2286 32° Northeast 465 535 24,000 1,500 Climbing New York Center
04:43PM 40.4364 -74.1414 32° Northeast 490 564 25,600 1,380 Climbing New York Center
04:44PM 40.5539 -74.0433 32° Northeast 490 564 26,800 1,080 Climbing New York Center
04:45PM 40.6733 -73.9422 33° Northeast 496 571 27,800 960 Climbing New York Center
04:46PM 40.7989 -73.8439 31° Northeast 508 585 28,800 1,260 Climbing New York Center
04:48PM 41.1283 -73.6939 19° North 517 595 32,100 1,200 Climbing Boston Center
04:49PM 41.2606 -73.6219 22° Northeast 517 595 33,000 240 Climbing Boston Center
04:51PM 41.4119 -73.5519 353° North  Level FlightAware Approximate
04:51PM 41.5428 -73.5356 353° North 511 588 33,000  Level Boston Center
04:52PM 41.7175 -73.5692 352° North 496 571 33,000  Level Boston Center
04:53PM 41.8547 -73.6022 350° North 496 571 33,000  Level Boston Center
04:54PM 41.9919 -73.6356 350° North 502 578 33,000 -780 Level Boston Center
04:55PM 42.1378 -73.6411 358° North 502 578 31,300 -2,580 Descending Boston Center
04:56PM 42.2847 -73.5150 32° Northeast 489 563 27,900 -2,820 Descending Boston Center
04:57PM 42.3508 -73.3617 60° Northeast 443 510 25,700 -2,100 Descending Boston Center
04:58PM 42.4208 -73.1994 60° Northeast 477 549 23,800 -1,860 Descending Boston Center
04:59PM 42.4822 -73.0425 62° Northeast 466 536 22,000 -1,800 Descending Boston Center
05:00PM 42.5433 -72.8939 61° Northeast 455 524 20,200 -1,920 Descending Boston Center
05:01PM 42.6000 -72.7531 61° Northeast 436 502 18,200 -1,560 Descending Boston Center
05:02PM 42.6400 -72.6236 67° East 424 488 17,100 -1,560 Descending Boston Center
05:03PM 42.6775 -72.4797 70° East 411 473 15,100 -1,860 Descending Boston Center
05:04PM 42.7131 -72.3439 70° East 398 458 13,400 -1,800 Descending Boston Center
05:05PM 42.7483 -72.2056 71° East 369 425 11,600 -1,680 Descending Boston Center
05:06PM 42.7814 -72.1006 67° East 338 389 10,100 -1,500 Descending Boston Center
05:07PM 42.8289 -71.9983 58° Northeast 302 348 8,600 -1,500 Descending Boston Center
05:08PM 42.8556 -71.9075 68° East 283 326 7,200 -1,500 Descending Boston Center
05:09PM 42.8486 -71.7917 95° East 275 316 5,600 -1,500 Descending Boston Center
05:10PM 42.8419 -71.6981 96° East 275 316 4,300 -900 Descending Boston Center
05:11PM 42.8350 -71.5964 95° East 261 300 3,800 -600 Descending Boston Center
05:12PM 42.8261 -71.5286 100° East 220 253 3,100 -660 Descending Boston Center
05:13PM 42.8108 -71.4522 105° East 192 221 2,500 -420 Descending Boston Center
05:14PM 42.8228 -71.3956 74° East 171 197 2,300 -240 Descending Boston Center